createdAt,value
2016-03-11T00:00:08.209Z,1020.41
2016-03-11T00:03:19.936Z,1020.41
2016-03-11T00:06:33.787Z,1020.43
2016-03-11T00:09:40.123Z,1020.51
2016-03-11T00:12:42.711Z,1020.57
2016-03-11T00:15:52.344Z,1020.59
2016-03-11T00:19:03.913Z,1020.65
2016-03-11T00:22:15.516Z,1020.61
2016-03-11T00:25:26.979Z,1020.59
2016-03-11T00:28:38.549Z,1020.59
2016-03-11T00:31:50.261Z,1020.69
2016-03-11T00:34:59.300Z,1020.61
2016-03-11T00:38:10.231Z,1020.75
2016-03-11T00:41:21.742Z,1020.69
2016-03-11T00:44:37.234Z,1020.69
2016-03-11T00:47:39.789Z,1020.63
2016-03-11T00:50:52.203Z,1020.67
2016-03-11T00:54:02.962Z,1020.63
2016-03-11T00:57:13.408Z,1020.49
2016-03-11T01:00:25.808Z,1020.67
2016-03-11T01:03:41.130Z,1020.55
2016-03-11T01:06:43.652Z,1020.65
2016-03-11T01:09:55.145Z,1020.63
2016-03-11T01:13:04.043Z,1020.59
2016-03-11T01:16:15.521Z,1020.67
2016-03-11T01:19:24.685Z,1020.61
2016-03-11T01:22:38.461Z,1020.53
2016-03-11T01:25:41.001Z,1020.61
2016-03-11T01:28:52.478Z,1020.67
2016-03-11T01:32:02.502Z,1020.69
2016-03-11T01:35:14.041Z,1020.69
2016-03-11T01:38:23.049Z,1020.57
2016-03-11T01:41:35.760Z,1020.67
2016-03-11T01:44:42.316Z,1020.55
2016-03-11T01:47:44.857Z,1020.55
2016-03-11T01:50:56.226Z,1020.55
2016-03-11T01:54:07.717Z,1020.69
2016-03-11T01:57:19.148Z,1020.69
2016-03-11T02:00:34.656Z,1020.73
2016-03-11T02:03:41.132Z,1020.75
2016-03-11T02:06:43.593Z,1020.83
2016-03-11T02:09:55.154Z,1020.83
2016-03-11T02:13:06.892Z,1020.69
2016-03-11T02:16:15.445Z,1020.79
2016-03-11T02:19:27.030Z,1020.75
2016-03-11T02:22:37.694Z,1020.71
2016-03-11T02:25:50.268Z,1020.85
2016-03-11T02:29:01.963Z,1020.71
2016-03-11T02:32:11.737Z,1020.81
2016-03-11T02:35:22.026Z,1020.93
2016-03-11T02:38:36.988Z,1020.87
2016-03-11T02:41:39.481Z,1020.89
2016-03-11T02:44:48.429Z,1020.95
2016-03-11T02:47:59.780Z,1020.85
2016-03-11T02:51:11.335Z,1020.71
2016-03-11T02:54:21.140Z,1020.85
2016-03-11T02:57:36.788Z,1020.81
2016-03-11T03:00:39.531Z,1020.77
2016-03-11T03:03:51.104Z,1020.85
2016-03-11T03:06:59.112Z,1020.75
2016-03-11T03:10:10.198Z,1020.87
2016-03-11T03:13:21.800Z,1020.87
2016-03-11T03:16:35.558Z,1020.89
2016-03-11T03:19:42.036Z,1020.83
2016-03-11T03:22:44.716Z,1020.83
2016-03-11T03:25:56.227Z,1021.03
2016-03-11T03:29:05.203Z,1020.85
2016-03-11T03:32:13.321Z,1020.91
2016-03-11T03:35:21.515Z,1020.93
2016-03-11T03:38:35.837Z,1021.07
2016-03-11T03:41:42.360Z,1021.07
2016-03-11T03:44:44.743Z,1021.11
2016-03-11T03:47:53.128Z,1021.11
2016-03-11T03:51:04.872Z,1021.15
2016-03-11T03:54:16.316Z,1021.27
2016-03-11T03:57:27.591Z,1021.17
2016-03-11T04:00:40.755Z,1021.29
2016-03-11T04:03:43.216Z,1021.15
2016-03-11T04:06:53.571Z,1021.11
2016-03-11T04:10:06.345Z,1021.27
2016-03-11T04:13:17.868Z,1021.17
2016-03-11T04:16:25.470Z,1021.11
2016-03-11T04:19:40.884Z,1021.27
2016-03-11T04:22:43.486Z,1021.25
2016-03-11T04:25:54.841Z,1021.25
2016-03-11T04:29:06.521Z,1021.35
2016-03-11T04:32:17.794Z,1021.29
2016-03-11T04:35:26.302Z,1021.17
2016-03-11T04:38:40.045Z,1021.33
2016-03-11T04:41:42.428Z,1021.35
2016-03-11T04:44:52.642Z,1021.37
2016-03-11T04:48:04.197Z,1021.43
2016-03-11T04:51:12.611Z,1021.37
2016-03-11T04:54:24.150Z,1021.53
2016-03-11T04:57:39.689Z,1021.65
2016-03-11T05:00:42.213Z,1021.61
2016-03-11T05:03:51.659Z,1021.65
2016-03-11T05:07:03.113Z,1021.69
2016-03-11T05:10:11.652Z,1021.69
2016-03-11T05:13:23.129Z,1021.77
2016-03-11T05:16:39.574Z,1021.73
2016-03-11T05:19:43.036Z,1021.79
2016-03-11T05:22:45.403Z,1021.79
2016-03-11T05:25:53.648Z,1021.85
2016-03-11T05:29:05.188Z,1021.89
2016-03-11T05:32:16.509Z,1021.89
2016-03-11T05:35:25.860Z,1022.08
2016-03-11T05:38:41.368Z,1021.98
2016-03-11T05:41:43.924Z,1021.91
2016-03-11T05:44:55.168Z,1021.94
2016-03-11T05:48:06.724Z,1021.98
2016-03-11T05:51:18.215Z,1022.02
2016-03-11T05:54:27.598Z,1022.06
2016-03-11T05:57:42.326Z,1022.04
2016-03-11T06:00:44.708Z,1021.98
2016-03-11T06:03:56.078Z,1022.04
2016-03-11T06:07:04.619Z,1022.08
2016-03-11T06:10:14.344Z,1022.14
2016-03-11T06:13:22.634Z,1022.16
2016-03-11T06:16:35.299Z,1022.24
2016-03-11T06:19:42.009Z,1022.36
2016-03-11T06:22:44.581Z,1022.3
2016-03-11T06:25:56.184Z,1022.3
2016-03-11T06:29:07.739Z,1022.34
2016-03-11T06:32:17.233Z,1022.32
2016-03-11T06:35:26.005Z,1022.34
2016-03-11T06:38:39.014Z,1022.44
2016-03-11T06:41:41.663Z,1022.42
2016-03-11T06:44:51.389Z,1022.42
2016-03-11T06:48:02.665Z,1022.58
2016-03-11T06:51:13.923Z,1022.5
2016-03-11T06:54:23.635Z,1022.54
2016-03-11T06:57:39.253Z,1022.6
2016-03-11T07:00:41.698Z,1022.66
2016-03-11T07:03:53.112Z,1022.66
2016-03-11T07:07:05.202Z,1022.68
2016-03-11T07:10:13.022Z,1022.78
2016-03-11T07:13:24.671Z,1022.82
2016-03-11T07:16:40.226Z,1022.76
2016-03-11T07:19:42.812Z,1022.88
2016-03-11T07:22:54.198Z,1022.88
2016-03-11T07:26:05.081Z,1022.9
2016-03-11T07:29:16.761Z,1022.86
2016-03-11T07:32:28.440Z,1022.88
2016-03-11T07:35:41.823Z,1022.9
2016-03-11T07:38:44.285Z,1022.88
2016-03-11T07:41:55.857Z,1022.88
2016-03-11T07:45:07.444Z,1022.94
2016-03-11T07:48:16.421Z,1022.98
2016-03-11T07:51:27.413Z,1022.92
2016-03-11T07:54:40.406Z,1023.06
2016-03-11T07:57:42.804Z,1023.1
2016-03-11T08:00:51.515Z,1023.12
2016-03-11T08:04:03.026Z,1023.04
2016-03-11T08:07:14.409Z,1023.18
2016-03-11T08:10:22.808Z,1023.12
2016-03-11T08:13:38.723Z,1023.1
2016-03-11T08:16:41.341Z,1023.12
2016-03-11T08:19:51.271Z,1023.22
2016-03-11T08:23:02.593Z,1023.12
2016-03-11T08:26:13.960Z,1023.16
2016-03-11T08:29:25.140Z,1023.08
2016-03-11T08:32:40.836Z,1023.06
2016-03-11T08:35:43.453Z,1023.16
2016-03-11T08:38:54.980Z,1023.22
2016-03-11T08:42:05.222Z,1023.18
2016-03-11T08:45:16.699Z,1023.14
2016-03-11T08:48:28.223Z,1023.18
2016-03-11T08:51:43.700Z,1023.18
2016-03-11T08:54:46.504Z,1023.2
2016-03-11T08:57:58.000Z,1023.32
2016-03-11T09:01:07.929Z,1023.24
2016-03-11T09:04:20.609Z,1023.28
2016-03-11T09:07:36.133Z,1023.24
2016-03-11T09:10:42.719Z,1023.24
2016-03-11T09:13:45.399Z,1023.22
2016-03-11T09:16:56.957Z,1023.33
2016-03-11T09:20:08.418Z,1023.32
2016-03-11T09:23:20.051Z,1023.18
2016-03-11T09:26:35.184Z,1023.28
2016-03-11T09:29:41.927Z,1023.22
2016-03-11T09:32:44.685Z,1023.22
2016-03-11T09:35:56.336Z,1023.26
2016-03-11T09:39:07.907Z,1023.22
2016-03-11T09:42:17.414Z,1023.26
2016-03-11T09:45:28.985Z,1023.26
2016-03-11T09:48:41.946Z,1023.24
2016-03-11T09:51:44.580Z,1023.28
2016-03-11T09:54:54.479Z,1023.3
2016-03-11T09:58:06.052Z,1023.32
2016-03-11T10:01:17.887Z,1023.33
2016-03-11T10:04:26.192Z,1023.35
2016-03-11T10:07:41.754Z,1023.39
2016-03-11T10:10:44.481Z,1023.45
2016-03-11T10:13:55.956Z,1023.43
2016-03-11T10:17:08.062Z,1023.53
2016-03-11T10:20:16.710Z,1023.53
2016-03-11T10:23:26.046Z,1023.53
2016-03-11T10:26:41.633Z,1023.37
2016-03-11T10:29:44.390Z,1023.49
2016-03-11T10:32:53.242Z,1023.51
2016-03-11T10:36:04.878Z,1023.53
2016-03-11T10:39:16.542Z,1023.33
2016-03-11T10:42:28.034Z,1023.53
2016-03-11T10:45:43.403Z,1023.41
2016-03-11T10:48:46.270Z,1023.53
2016-03-11T10:51:57.844Z,1023.45
2016-03-11T10:55:08.086Z,1023.47
2016-03-11T10:58:19.734Z,1023.49
2016-03-11T11:01:28.540Z,1023.59
2016-03-11T11:04:44.079Z,1023.51
2016-03-11T11:07:46.987Z,1023.47
2016-03-11T11:10:58.359Z,1023.43
2016-03-11T11:14:10.226Z,1023.49
2016-03-11T11:17:22.116Z,1023.55
2016-03-11T11:20:36.338Z,1023.45
2016-03-11T11:23:43.235Z,1023.45
2016-03-11T11:26:46.101Z,1023.47
2016-03-11T11:29:55.623Z,1023.59
2016-03-11T11:33:07.179Z,1023.43
2016-03-11T11:36:15.750Z,1023.37
2016-03-11T11:39:27.603Z,1023.2
2016-03-11T11:42:41.345Z,1023.26
2016-03-11T11:45:44.416Z,1023.2
2016-03-11T11:48:56.455Z,1023.26
2016-03-11T11:52:08.372Z,1023.3
2016-03-11T11:55:17.849Z,1023.3
2016-03-11T11:58:29.622Z,1023.43
2016-03-11T12:01:41.552Z,1023.33
2016-03-11T12:04:53.498Z,1023.32
2016-03-11T12:08:04.368Z,1023.33
2016-03-11T12:11:16.142Z,1023.37
2016-03-11T12:14:26.744Z,1023.35
2016-03-11T12:17:39.970Z,1023.39
2016-03-11T12:20:42.994Z,1023.51
2016-03-11T12:23:53.736Z,1023.41
2016-03-11T12:27:06.825Z,1023.43
2016-03-11T12:30:16.224Z,1023.39
2016-03-11T12:33:25.748Z,1023.43
2016-03-11T12:36:39.849Z,1023.41
2016-03-11T12:39:42.936Z,1023.26
2016-03-11T12:42:54.975Z,1023.41
2016-03-11T12:46:06.955Z,1023.47
2016-03-11T12:49:18.603Z,1023.47
2016-03-11T12:52:30.377Z,1023.57
2016-03-11T12:55:42.025Z,1023.55
2016-03-11T12:58:53.408Z,1023.53
2016-03-11T13:02:02.404Z,1023.41
2016-03-11T13:05:11.412Z,1023.49
2016-03-11T13:08:19.889Z,1023.45
2016-03-11T13:11:29.193Z,1023.3
2016-03-11T13:14:45.108Z,1023.39
2016-03-11T13:17:48.131Z,1023.35
2016-03-11T13:20:57.967Z,1023.35
2016-03-11T13:24:09.916Z,1023.41
2016-03-11T13:27:21.799Z,1023.41
2016-03-11T13:30:37.480Z,1023.47
2016-03-11T13:33:44.409Z,1023.51
2016-03-11T13:36:47.417Z,1023.37
2016-03-11T13:39:58.878Z,1023.45
2016-03-11T13:43:08.951Z,1023.41
2016-03-11T13:46:20.225Z,1023.49
2016-03-11T13:49:35.749Z,1023.47
2016-03-11T13:52:42.508Z,1023.39
2016-03-11T13:55:45.499Z,1023.61
2016-03-11T13:58:56.616Z,1023.55
2016-03-11T14:02:06.800Z,1023.49
2016-03-11T14:05:17.683Z,1023.35
2016-03-11T14:08:29.456Z,1023.45
2016-03-11T14:11:43.604Z,1023.47
2016-03-11T14:14:46.566Z,1023.49
2016-03-11T14:17:55.700Z,1023.57
2016-03-11T14:21:04.961Z,1023.41
2016-03-11T14:24:16.969Z,1023.65
2016-03-11T14:27:26.038Z,1023.47
2016-03-11T14:30:39.171Z,1023.53
2016-03-11T14:33:42.070Z,1023.65
2016-03-11T14:36:51.157Z,1023.59
2016-03-11T14:39:59.368Z,1023.67
2016-03-11T14:43:10.440Z,1023.65
2016-03-11T14:46:19.559Z,1023.59
2016-03-11T14:49:27.942Z,1023.61
2016-03-11T14:52:43.669Z,1023.69
2016-03-11T14:55:46.587Z,1023.69
2016-03-11T14:58:58.266Z,1023.69
2016-03-11T15:02:08.495Z,1023.69
2016-03-11T15:05:17.989Z,1023.81
2016-03-11T15:08:29.793Z,1023.81
2016-03-11T15:11:45.067Z,1023.83
2016-03-11T15:14:48.028Z,1023.83
2016-03-11T15:17:59.271Z,1023.87
2016-03-11T15:21:11.188Z,1023.85
2016-03-11T15:24:20.040Z,1023.93
2016-03-11T15:27:36.953Z,1024.03
2016-03-11T15:30:43.718Z,1023.93
2016-03-11T15:33:46.464Z,1023.99
2016-03-11T15:36:57.406Z,1023.93
2016-03-11T15:40:05.884Z,1023.95
2016-03-11T15:43:17.351Z,1023.95
2016-03-11T15:46:26.344Z,1023.91
2016-03-11T15:49:39.899Z,1023.91
2016-03-11T15:52:42.532Z,1024.05
2016-03-11T15:55:54.352Z,1023.95
2016-03-11T15:59:02.769Z,1023.93
2016-03-11T16:02:11.605Z,1023.99
2016-03-11T16:05:20.270Z,1023.95
2016-03-11T16:08:30.288Z,1023.97
2016-03-11T16:11:45.562Z,1023.97
2016-03-11T16:14:48.336Z,1023.99
2016-03-11T16:17:59.452Z,1024.03
2016-03-11T16:21:08.666Z,1024.05
2016-03-11T16:24:18.191Z,1024.05
2016-03-11T16:27:29.760Z,1024.01
2016-03-11T16:30:43.097Z,1023.99
2016-03-11T16:33:45.792Z,1024.01
2016-03-11T16:36:54.581Z,1024.13
2016-03-11T16:40:06.264Z,1024.11
2016-03-11T16:43:15.539Z,1024.05
2016-03-11T16:46:25.423Z,1024.21
2016-03-11T16:49:38.243Z,1024.11
2016-03-11T16:52:44.875Z,1024.21
2016-03-11T16:55:47.571Z,1024.19
2016-03-11T16:58:57.110Z,1024.27
2016-03-11T17:02:08.543Z,1024.29
2016-03-11T17:05:17.895Z,1024.27
2016-03-11T17:08:29.763Z,1024.47
2016-03-11T17:11:45.474Z,1024.43
2016-03-11T17:14:48.217Z,1024.37
2016-03-11T17:17:56.959Z,1024.45
2016-03-11T17:21:08.578Z,1024.47
2016-03-11T17:24:20.290Z,1024.53
2016-03-11T17:27:31.923Z,1024.55
2016-03-11T17:30:44.180Z,1024.55
2016-03-11T17:33:46.799Z,1024.57
2016-03-11T17:36:55.494Z,1024.77
2016-03-11T17:40:05.142Z,1024.65
2016-03-11T17:43:14.310Z,1024.71
2016-03-11T17:46:26.006Z,1024.81
2016-03-11T17:49:41.356Z,1024.79
2016-03-11T17:52:43.911Z,1024.83
2016-03-11T17:55:55.483Z,1025.13
2016-03-11T17:59:06.775Z,1024.87
2016-03-11T18:02:18.346Z,1024.97
2016-03-11T18:05:29.963Z,1025.07
2016-03-11T18:08:45.518Z,1025.05
2016-03-11T18:11:47.963Z,1025.05
2016-03-11T18:14:59.596Z,1025.05
2016-03-11T18:18:09.029Z,1025.13
2016-03-11T18:21:20.350Z,1025.17
2016-03-11T18:24:28.748Z,1025.15
2016-03-11T18:27:41.319Z,1025.2
2016-03-11T18:30:43.827Z,1025.22
2016-03-11T18:33:53.788Z,1025.32
2016-03-11T18:37:05.062Z,1025.36
2016-03-11T18:40:16.463Z,1025.42
2016-03-11T18:43:27.034Z,1025.32
2016-03-11T18:46:42.541Z,1025.26
2016-03-11T18:49:45.159Z,1025.34
2016-03-11T18:52:57.089Z,1025.36
2016-03-11T18:56:08.272Z,1025.46
2016-03-11T18:59:17.295Z,1025.42
2016-03-11T19:02:28.444Z,1025.44
2016-03-11T19:05:42.218Z,1025.48
2016-03-11T19:08:44.788Z,1025.46
2016-03-11T19:11:52.687Z,1025.58
2016-03-11T19:15:05.335Z,1025.6
2016-03-11T19:18:15.141Z,1025.48
2016-03-11T19:21:26.556Z,1025.64
2016-03-11T19:24:40.345Z,1025.62
2016-03-11T19:27:42.931Z,1025.56
2016-03-11T19:30:52.361Z,1025.5
2016-03-11T19:34:03.869Z,1025.66
2016-03-11T19:37:15.395Z,1025.62
2016-03-11T19:40:29.342Z,1025.58
2016-03-11T19:43:40.599Z,1025.62
2016-03-11T19:46:43.138Z,1025.6
2016-03-11T19:49:52.068Z,1025.72
2016-03-11T19:53:03.576Z,1025.7
2016-03-11T19:56:14.900Z,1025.78
2016-03-11T19:59:24.954Z,1025.64
2016-03-11T20:02:40.353Z,1025.66
2016-03-11T20:05:46.830Z,1025.6
2016-03-11T20:08:49.416Z,1025.66
2016-03-11T20:11:59.200Z,1025.74
2016-03-11T20:15:07.612Z,1025.68
2016-03-11T20:18:19.175Z,1025.76
2016-03-11T20:21:28.313Z,1025.74
2016-03-11T20:24:41.489Z,1025.72
2016-03-11T20:27:44.104Z,1025.74
2016-03-11T20:30:53.969Z,1025.72
2016-03-11T20:34:05.367Z,1025.74
2016-03-11T20:37:16.986Z,1025.7
2016-03-11T20:40:26.978Z,1025.88
2016-03-11T20:43:39.596Z,1025.82
2016-03-11T20:46:46.744Z,1025.86
2016-03-11T20:49:49.565Z,1025.86
2016-03-11T20:53:01.229Z,1025.76
2016-03-11T20:56:12.725Z,1025.76
2016-03-11T20:59:24.484Z,1025.72
2016-03-11T21:02:40.413Z,1025.76
2016-03-11T21:05:43.170Z,1025.72
2016-03-11T21:08:54.772Z,1025.74
2016-03-11T21:12:06.344Z,1025.82
2016-03-11T21:15:15.479Z,1025.82
2016-03-11T21:18:24.955Z,1025.76
2016-03-11T21:21:32.667Z,1025.86
2016-03-11T21:24:44.221Z,1025.92
2016-03-11T21:27:55.542Z,1025.72
2016-03-11T21:31:06.769Z,1025.88
2016-03-11T21:34:15.546Z,1025.86
2016-03-11T21:37:26.226Z,1025.8
2016-03-11T21:40:41.547Z,1025.86
2016-03-11T21:43:44.148Z,1025.84
2016-03-11T21:46:53.875Z,1025.86
2016-03-11T21:50:05.368Z,1025.78
2016-03-11T21:53:15.065Z,1025.76
2016-03-11T21:56:25.995Z,1025.88
2016-03-11T21:59:38.925Z,1025.72
2016-03-11T22:02:45.339Z,1025.78
2016-03-11T22:05:46.676Z,1025.8
2016-03-11T22:08:59.308Z,1025.74
2016-03-11T22:12:10.961Z,1025.96
2016-03-11T22:15:21.765Z,1025.98
2016-03-11T22:18:32.305Z,1025.86
2016-03-11T22:21:47.563Z,1025.76
2016-03-11T22:24:50.071Z,1025.78
2016-03-11T22:28:01.407Z,1025.88
2016-03-11T22:31:11.401Z,1025.82
2016-03-11T22:34:21.253Z,1025.96
2016-03-11T22:37:30.481Z,1025.82
2016-03-11T22:40:45.817Z,1025.88
2016-03-11T22:43:48.356Z,1025.82
2016-03-11T22:46:57.458Z,1025.84
2016-03-11T22:50:08.919Z,1025.9
2016-03-11T22:53:18.649Z,1025.96
2016-03-11T22:56:30.234Z,1025.94
2016-03-11T22:59:45.664Z,1025.9
2016-03-11T23:02:46.984Z,1025.92
2016-03-11T23:05:59.743Z,1025.94
2016-03-11T23:09:11.410Z,1026.06
2016-03-11T23:12:22.700Z,1025.94
2016-03-11T23:15:31.880Z,1025.98
2016-03-11T23:18:47.341Z,1025.98
2016-03-11T23:21:49.927Z,1025.94
2016-03-11T23:24:57.982Z,1025.92
2016-03-11T23:28:09.521Z,1025.92
2016-03-11T23:31:20.938Z,1025.94
2016-03-11T23:34:32.446Z,1025.92
2016-03-11T23:37:44.158Z,1025.92
2016-03-11T23:40:46.681Z,1025.96
2016-03-11T23:43:55.908Z,1026
2016-03-11T23:47:04.166Z,1026.12
2016-03-11T23:50:15.474Z,1025.98
2016-03-11T23:53:26.716Z,1025.92
2016-03-11T23:56:40.865Z,1026
2016-03-11T23:59:47.388Z,1025.98
